createdAt,value
2016-12-25T15:25:22.679Z,24.47
2016-12-25T15:25:48.048Z,24.51
2016-12-25T15:26:13.370Z,24.47
2016-12-25T15:26:38.693Z,24.51
2016-12-25T15:27:04.012Z,24.56
2016-12-25T15:27:29.335Z,24.65
2016-12-25T15:27:54.657Z,24.6
2016-12-25T15:28:19.984Z,24.6
2016-12-25T15:28:45.305Z,24.7
2016-12-25T16:45:22.039Z,25.77
2016-12-25T16:45:47.408Z,25.64
2016-12-25T16:46:12.780Z,25.48
2016-12-25T16:46:38.140Z,25.21
2016-12-25T16:51:04.185Z,-34.33
2016-12-25T16:53:04.674Z,-34.33
2016-12-25T16:53:31.465Z,-34.33
2016-12-25T16:53:56.680Z,-34.33
2016-12-25T16:54:22.005Z,-34.33
2016-12-25T16:54:47.416Z,-34.33
2016-12-25T16:55:12.743Z,-34.33
2016-12-25T16:57:37.643Z,21.43
2016-12-25T16:58:35.661Z,23.48
2016-12-25T16:59:00.980Z,23.96
2016-12-25T16:59:26.310Z,24.47
2016-12-25T16:59:51.636Z,24.66
2016-12-25T17:00:16.961Z,24.9
2016-12-25T17:00:42.283Z,25.06
2016-12-25T17:01:07.606Z,25.11
2016-12-25T17:01:32.934Z,25.26
2016-12-25T17:02:58.580Z,25.85
2016-12-25T17:03:23.901Z,25.38
2016-12-25T17:03:49.227Z,25.15
2016-12-25T17:04:14.551Z,25.18
2016-12-25T17:04:39.874Z,25.11
2016-12-25T17:05:05.208Z,25.16
2016-12-25T17:05:30.582Z,25.04
2016-12-25T17:05:55.961Z,25
2016-12-25T17:06:21.336Z,25.14
2016-12-25T17:06:46.709Z,25.15
2016-12-25T17:07:12.070Z,25.12
2016-12-25T17:07:37.401Z,25.15
2016-12-25T17:08:02.779Z,25.19
2016-12-25T17:10:09.928Z,25.41
2016-12-25T17:10:35.301Z,25.43
2016-12-25T17:11:00.717Z,25.23
2016-12-25T17:11:26.104Z,25.14
2016-12-25T17:11:51.477Z,25.21
2016-12-25T17:12:16.850Z,25.22
2016-12-25T17:12:42.222Z,25.12
2016-12-25T17:13:40.593Z,25.34
2016-12-25T17:14:30.961Z,25.26
2016-12-25T17:16:24.514Z,14.95
2016-12-25T17:17:14.880Z,12.47
2016-12-25T17:18:05.278Z,11.55
2016-12-25T17:18:55.635Z,11
2016-12-25T17:19:46.038Z,10.7
2016-12-25T17:20:36.401Z,10.52
2016-12-25T17:21:26.787Z,10.3
2016-12-25T17:22:17.155Z,10.2
2016-12-25T17:23:07.533Z,10.1
2016-12-25T17:23:57.941Z,10.08
2016-12-25T17:24:48.332Z,10.09
2016-12-25T17:25:38.700Z,10.12
2016-12-25T17:26:29.071Z,10.08
2016-12-25T17:27:19.445Z,10.05
2016-12-25T17:28:09.831Z,10.03
2016-12-25T17:29:00.207Z,10.14
2016-12-25T17:29:50.612Z,10.03
2016-12-25T17:30:40.977Z,10.12
2016-12-25T17:31:31.365Z,10.12
2016-12-25T17:32:21.723Z,9.99
2016-12-25T17:33:12.093Z,10.05
2016-12-25T17:34:02.456Z,10.01
2016-12-25T17:34:52.857Z,10.01
2016-12-25T17:35:43.268Z,10.05
2016-12-25T17:36:33.763Z,10.01
2016-12-25T17:37:24.139Z,9.98
2016-12-25T17:38:14.502Z,9.99
2016-12-25T17:39:04.861Z,10.08
2016-12-25T17:39:55.243Z,10.05
2016-12-25T17:40:45.615Z,10.03
2016-12-25T17:41:35.979Z,10.03
2016-12-25T17:42:26.346Z,10.05
2016-12-25T17:43:16.722Z,10.05
2016-12-25T17:44:07.082Z,10.03
2016-12-25T17:44:57.445Z,10.08
2016-12-25T17:45:47.812Z,10.1
2016-12-25T17:46:38.961Z,10.12
2016-12-25T17:47:29.325Z,10.06
2016-12-25T17:48:19.681Z,10.12
2016-12-25T17:49:10.090Z,10.09
2016-12-25T17:50:00.540Z,10.1
2016-12-25T17:50:50.983Z,10.08
2016-12-25T17:51:41.458Z,10.09
2016-12-25T17:52:31.841Z,10.14
2016-12-25T17:53:22.292Z,10.08
2016-12-25T17:54:12.656Z,10.09
2016-12-25T17:55:03.055Z,10.06
2016-12-25T17:55:54.338Z,10.14
2016-12-25T17:56:44.740Z,10.09
2016-12-25T17:57:35.085Z,10.09
2016-12-25T17:58:25.441Z,10.28
2016-12-25T17:59:15.815Z,10.28
2016-12-25T18:00:06.165Z,10.21
2016-12-25T18:00:56.560Z,10.2
2016-12-25T18:01:47.582Z,10.27
2016-12-25T18:02:38.020Z,10.18
2016-12-25T18:03:28.394Z,10.05
2016-12-25T18:04:18.788Z,10.26
2016-12-25T18:05:09.130Z,10.21
2016-12-25T18:05:59.533Z,10.16
2016-12-25T18:06:49.884Z,10.21
2016-12-25T18:07:40.271Z,10.18
2016-12-25T18:08:30.722Z,10.2
2016-12-25T18:09:21.101Z,10.16
2016-12-25T18:10:11.487Z,10.14
2016-12-25T18:11:01.859Z,10.18
2016-12-25T18:11:52.353Z,10.09
2016-12-25T18:12:42.741Z,10.08
2016-12-25T18:13:33.108Z,10.18
2016-12-25T18:14:23.482Z,10.2
2016-12-25T18:15:13.847Z,10.24
2016-12-25T18:16:04.210Z,10.23
2016-12-25T18:16:54.614Z,10.2
2016-12-25T18:17:44.981Z,10.14
2016-12-25T18:18:35.346Z,10.18
2016-12-25T18:19:25.759Z,10.23
2016-12-25T18:20:16.116Z,10.21
2016-12-25T18:21:06.461Z,10.21
2016-12-25T18:21:56.818Z,10.21
2016-12-25T18:22:47.162Z,10.21
2016-12-25T18:23:37.535Z,10.23
2016-12-25T18:24:27.924Z,10.21
2016-12-25T18:25:18.288Z,10.21
2016-12-25T18:26:08.643Z,10.26
2016-12-25T18:26:58.995Z,10.21
2016-12-25T18:27:49.396Z,10.2
2016-12-25T18:28:39.757Z,10.21
2016-12-25T18:29:30.125Z,10.24
2016-12-25T18:30:20.635Z,10.21
2016-12-25T18:31:11.008Z,10.17
2016-12-25T18:32:01.360Z,10.28
2016-12-25T18:32:51.720Z,10.34
2016-12-25T18:33:42.090Z,10.31
2016-12-25T18:34:32.460Z,10.27
2016-12-25T18:35:22.835Z,10.2
2016-12-25T18:36:13.210Z,10.23
2016-12-25T18:37:03.571Z,10.17
2016-12-25T18:37:53.955Z,10.27
2016-12-25T18:38:44.325Z,10.2
2016-12-25T18:39:34.688Z,10.27
2016-12-25T18:40:25.070Z,10.27
2016-12-25T18:41:15.424Z,10.26
2016-12-25T18:42:05.817Z,10.21
2016-12-25T18:42:56.155Z,10.26
2016-12-25T18:43:46.536Z,10.17
2016-12-25T18:44:36.866Z,10.08
2016-12-25T18:45:27.233Z,10.21
2016-12-25T18:46:17.585Z,10.23
2016-12-25T18:47:07.940Z,10.2
2016-12-25T18:47:58.285Z,10.16
2016-12-25T18:48:48.655Z,10.2
2016-12-25T18:49:39.014Z,10.18
2016-12-25T18:50:29.383Z,10.23
2016-12-25T18:51:19.754Z,10.16
2016-12-25T18:52:10.110Z,10.14
2016-12-25T18:53:00.480Z,10.17
2016-12-25T18:53:50.845Z,10.06
2016-12-25T18:54:41.222Z,10.16
2016-12-25T18:55:31.720Z,10.08
2016-12-25T18:56:22.090Z,10.12
2016-12-25T18:57:12.454Z,10.12
2016-12-25T18:58:02.818Z,10.06
2016-12-25T18:58:53.172Z,10.08
2016-12-25T18:59:43.542Z,10.09
2016-12-25T19:00:33.906Z,10.12
2016-12-25T19:01:24.329Z,10.08
2016-12-25T19:02:14.700Z,10.12
2016-12-25T19:03:05.067Z,10.12
2016-12-25T19:03:55.423Z,10.12
2016-12-25T19:04:45.798Z,10.1
2016-12-25T19:05:36.160Z,10.08
2016-12-25T19:06:26.535Z,10.1
2016-12-25T19:07:17.006Z,10.1
2016-12-25T19:08:07.384Z,10.08
2016-12-25T19:08:57.743Z,10.08
2016-12-25T19:09:48.115Z,10.09
2016-12-25T19:10:38.473Z,10.06
2016-12-25T19:11:28.912Z,10.03
2016-12-25T19:12:19.839Z,9.98
2016-12-25T19:13:10.198Z,10.05
2016-12-25T19:14:00.562Z,10.08
2016-12-25T19:14:50.925Z,9.98
2016-12-25T19:15:41.288Z,10.02
2016-12-25T19:16:31.661Z,10.09
2016-12-25T19:17:22.027Z,10.09
2016-12-25T19:18:12.375Z,10.02
2016-12-25T19:19:02.749Z,10.08
2016-12-25T19:19:53.109Z,10.05
2016-12-25T19:20:43.483Z,10.08
2016-12-25T19:21:33.840Z,9.94
2016-12-25T19:22:24.196Z,10.01
2016-12-25T19:23:14.559Z,9.98
2016-12-25T19:24:04.926Z,10.01
2016-12-25T19:24:55.299Z,10.06
2016-12-25T19:25:45.657Z,10.03
2016-12-25T19:26:36.029Z,10.01
2016-12-25T19:27:26.375Z,10.02
2016-12-25T19:28:16.742Z,10.03
2016-12-25T19:29:07.103Z,10.02
2016-12-25T19:29:57.496Z,10.08
2016-12-25T19:30:47.905Z,9.98
2016-12-25T19:31:38.234Z,10.01
2016-12-25T19:32:28.625Z,9.98
2016-12-25T19:33:18.979Z,10.05
2016-12-25T19:34:09.358Z,10.02
2016-12-25T19:34:59.716Z,10.01
2016-12-25T19:35:50.134Z,10.01
2016-12-25T19:36:40.501Z,9.96
2016-12-25T19:37:30.932Z,10.02
2016-12-25T19:38:21.299Z,10.01
2016-12-25T19:39:11.650Z,9.98
2016-12-25T19:40:02.036Z,10.03
2016-12-25T19:40:52.438Z,10.01
2016-12-25T19:41:42.765Z,10.01
2016-12-25T19:42:33.126Z,9.99
2016-12-25T19:43:23.505Z,10.03
2016-12-25T19:44:13.868Z,9.93
2016-12-25T19:45:04.227Z,9.99
2016-12-25T19:45:54.655Z,10.01
2016-12-25T19:46:45.039Z,9.91
2016-12-25T19:47:35.400Z,10.05
2016-12-25T19:48:25.761Z,10.01
2016-12-25T19:49:16.120Z,9.96
2016-12-25T19:50:06.465Z,9.98
2016-12-25T19:50:56.828Z,9.96
2016-12-25T19:51:47.183Z,10.02
2016-12-25T19:52:37.555Z,10.02
2016-12-25T19:53:27.918Z,9.98
2016-12-25T19:54:18.287Z,9.96
2016-12-25T19:55:08.653Z,10.08
2016-12-25T19:55:59.015Z,10.02
2016-12-25T19:56:49.386Z,9.96
2016-12-25T19:57:39.753Z,9.94
2016-12-25T19:58:30.137Z,9.99
2016-12-25T19:59:20.494Z,9.99
2016-12-25T20:00:10.897Z,9.98
2016-12-25T20:01:01.260Z,9.94
2016-12-25T20:01:51.655Z,10.03
2016-12-25T20:02:41.999Z,9.96
2016-12-25T20:03:32.353Z,10.01
2016-12-25T20:04:22.714Z,10.09
2016-12-25T20:05:13.077Z,10.06
2016-12-25T20:06:03.428Z,10.02
2016-12-25T20:06:53.801Z,10.08
2016-12-25T20:07:44.168Z,10.03
2016-12-25T20:08:34.531Z,9.94
2016-12-25T20:09:24.912Z,9.98
2016-12-25T20:10:15.253Z,9.98
2016-12-25T20:11:05.624Z,10.01
2016-12-25T20:11:55.993Z,10.02
2016-12-25T20:12:46.351Z,10.01
2016-12-25T20:13:36.707Z,10.03
2016-12-25T20:14:27.083Z,10.02
2016-12-25T20:15:17.444Z,9.98
2016-12-25T20:16:07.954Z,9.99
2016-12-25T20:16:58.308Z,10.06
2016-12-25T20:17:48.691Z,9.94
2016-12-25T20:18:39.035Z,10.02
2016-12-25T20:19:29.412Z,10.01
2016-12-25T20:20:19.780Z,9.99
2016-12-25T20:21:10.142Z,9.99
2016-12-25T20:22:00.506Z,10.06
2016-12-25T20:22:50.867Z,10.05
2016-12-25T20:23:41.237Z,10.02
2016-12-25T20:24:31.596Z,10.09
2016-12-25T20:25:21.965Z,10.12
2016-12-25T20:26:12.328Z,10.14
2016-12-25T20:27:02.674Z,10.08
2016-12-25T20:27:53.046Z,10.12
2016-12-25T20:28:43.419Z,10.09
2016-12-25T20:29:33.800Z,10.17
